Wetterdaten: Woche 10.05.21 - 16.05.21 (KW19)
Datum Zeit Temp. A. Temp. A. min Temp. A. max Feuchte A. Bod.Feucht 4 Luftdruck Regen Wind Richtung Sonnenschein ET Solar Taupunkt Windchill Windben Empfang
10.05.2021 00:00 16,3 C 16,3 C 16,4 C 68 % 0 cb 1004,2 hPa 0,0 l/m 0,5 km/h (0 Bft) S-SO 0,00 h 0,025 mm 0 W/m 10,4 C 16,3 C 3,7 km/h (1 Bft) 99,78 %
10.05.2021 01:00 16,3 C 16,1 C 16,4 C 70 % 0 cb 1004,0 hPa 0,0 l/m 0,8 km/h (0 Bft) S-SO 0,00 h 0,025 mm 0 W/m 10,8 C 16,3 C 7,0 km/h (2 Bft) 100,00 %
10.05.2021 02:00 16,3 C 16,3 C 16,5 C 73 % 0 cb 1002,6 hPa 0,0 l/m 0,8 km/h (0 Bft) S 0,00 h 0,025 mm 0 W/m 11,5 C 16,3 C 3,5 km/h (1 Bft) 99,93 %
10.05.2021 03:00 15,5 C 15,4 C 15,6 C 75 % 0 cb 1002,5 hPa 0,0 l/m 0,5 km/h (0 Bft) S 0,00 h 0,025 mm 0 W/m 11,0 C 15,5 C 2,4 km/h (1 Bft) 100,00 %
10.05.2021 04:00 15,4 C 15,3 C 15,5 C 75 % 0 cb 1003,0 hPa 0,0 l/m 1,1 km/h (0 Bft) S 0,00 h 0,025 mm 0 W/m 10,9 C 15,4 C 3,2 km/h (1 Bft) 99,78 %
10.05.2021 05:00 15,0 C 14,8 C 15,1 C 78 % 0 cb 1004,3 hPa 0,0 l/m 4,3 km/h (1 Bft) S 0,00 h 0,025 mm 0 W/m 11,2 C 15,0 C 15,0 km/h (3 Bft) 100,00 %
10.05.2021 06:00 15,6 C 15,6 C 15,7 C 76 % 0 cb 1004,9 hPa 0,0 l/m 7,0 km/h (2 Bft) S-SW 0,00 h 0,025 mm 14 W/m 11,4 C 15,6 C 22,3 km/h (4 Bft) 99,78 %
10.05.2021 07:00 14,3 C 14,3 C 14,6 C 86 % 0 cb 1005,5 hPa 0,4 l/m 5,6 km/h (1 Bft) S-SW 0,00 h 0,025 mm 25 W/m 12,0 C 14,3 C 14,5 km/h (3 Bft) 100,00 %
10.05.2021 08:00 14,8 C 14,5 C 14,8 C 87 % 0 cb 1005,8 hPa 0,0 l/m 5,1 km/h (1 Bft) S 0,83 h 0,025 mm 264 W/m 12,6 C 14,8 C 13,4 km/h (3 Bft) 100,00 %
10.05.2021 09:00 15,4 C 15,4 C 15,5 C 82 % 0 cb 1006,6 hPa 0,0 l/m 8,6 km/h (2 Bft) S 0,83 h 0,102 mm 253 W/m 12,4 C 15,4 C 22,8 km/h (4 Bft) 100,00 %
10.05.2021 10:00 15,1 C 15,0 C 15,2 C 82 % 0 cb 1007,6 hPa 0,4 l/m 9,9 km/h (2 Bft) SW 0,83 h 0,127 mm 184 W/m 12,0 C 15,1 C 28,7 km/h (4 Bft) 100,00 %
10.05.2021 11:00 13,9 C 13,9 C 14,0 C 89 % 0 cb 1008,1 hPa 0,4 l/m 8,6 km/h (2 Bft) S 0,67 h 0,102 mm 186 W/m 12,1 C 13,9 C 21,7 km/h (4 Bft) 100,00 %
10.05.2021 12:00 13,4 C 13,4 C 13,5 C 92 % 0 cb 1008,9 hPa 0,2 l/m 8,6 km/h (2 Bft) S 0,83 h 0,102 mm 233 W/m 12,1 C 13,4 C 21,4 km/h (4 Bft) 100,00 %
10.05.2021 13:00 13,6 C 13,6 C 13,6 C 90 % 0 cb 1009,7 hPa 0,0 l/m 6,7 km/h (2 Bft) S 0,67 h 0,102 mm 169 W/m 12,0 C 13,6 C 18,2 km/h (3 Bft) 100,00 %
10.05.2021 14:00 14,3 C 14,0 C 14,3 C 88 % 0 cb 1009,3 hPa 0,0 l/m 6,7 km/h (2 Bft) S 1,00 h 0,076 mm 368 W/m 12,2 C 14,3 C 16,9 km/h (3 Bft) 99,64 %
10.05.2021 15:00 15,2 C 15,1 C 15,3 C 82 % 0 cb 1009,4 hPa 0,0 l/m 6,7 km/h (2 Bft) S 1,00 h 0,178 mm 300 W/m 12,2 C 15,2 C 18,0 km/h (3 Bft) 99,71 %
10.05.2021 16:00 15,2 C 15,2 C 15,3 C 81 % 0 cb 1009,3 hPa 0,0 l/m 4,0 km/h (1 Bft) S 0,83 h 0,152 mm 183 W/m 11,9 C 15,2 C 12,9 km/h (3 Bft) 100,00 %
10.05.2021 17:00 14,7 C 14,6 C 14,8 C 84 % 0 cb 1009,4 hPa 0,0 l/m 4,8 km/h (1 Bft) S 0,00 h 0,102 mm 124 W/m 12,0 C 14,7 C 12,6 km/h (3 Bft) 100,00 %
10.05.2021 18:00 13,7 C 13,7 C 13,9 C 89 % 0 cb 1009,5 hPa 0,0 l/m 4,3 km/h (1 Bft) S-SO 0,00 h 0,076 mm 60 W/m 11,9 C 13,7 C 9,9 km/h (2 Bft) 100,00 %
10.05.2021 19:00 13,0 C 13,0 C 13,2 C 91 % 0 cb 1009,9 hPa 0,2 l/m 4,0 km/h (1 Bft) S-SO 0,00 h 0,025 mm 36 W/m 11,6 C 13,0 C 10,2 km/h (2 Bft) 100,00 %
10.05.2021 20:00 12,4 C 12,4 C 12,5 C 93 % 0 cb 1009,7 hPa 0,4 l/m 2,7 km/h (1 Bft) S-SO 0,00 h 0,025 mm 11 W/m 11,3 C 12,4 C 7,5 km/h (2 Bft) 99,78 %
10.05.2021 21:00 11,9 C 11,9 C 12,0 C 94 % 0 cb 1009,8 hPa 0,6 l/m 1,3 km/h (1 Bft) S-SO 0,00 h 0,000 mm 0 W/m 11,0 C 11,9 C 4,3 km/h (1 Bft) 100,00 %
10.05.2021 22:00 11,5 C 11,5 C 11,6 C 95 % 0 cb 1009,9 hPa 0,2 l/m 0,5 km/h (0 Bft) S-SO 0,00 h 0,000 mm 0 W/m 10,7 C 11,5 C 2,7 km/h (1 Bft) 99,64 %
10.05.2021 23:00 11,3 C 11,3 C 11,4 C 95 % 0 cb 1009,9 hPa 0,2 l/m 0,5 km/h (0 Bft) S-SO 0,00 h 0,000 mm 0 W/m 10,6 C 11,3 C 4,0 km/h (1 Bft) 100,00 %
11.05.2021 00:00 11,2 C 11,2 C 11,3 C 96 % 0 cb 1010,0 hPa 1,4 l/m 0,8 km/h (0 Bft) S-SO 0,00 h 0,000 mm 0 W/m 10,6 C 11,2 C 4,3 km/h (1 Bft) 99,93 %
11.05.2021 01:00 11,0 C 11,0 C 11,1 C 96 % 0 cb 1009,9 hPa 0,6 l/m 0,3 km/h (0 Bft) S-SO 0,00 h 0,000 mm 0 W/m 10,4 C 11,0 C 2,9 km/h (1 Bft) 99,85 %
11.05.2021 02:00 10,8 C 10,8 C 10,9 C 96 % 0 cb 1009,6 hPa 0,6 l/m 0,0 km/h (0 Bft) N 0,00 h 0,000 mm 0 W/m 10,2 C 10,8 C 0,0 km/h (0 Bft) 100,00 %
11.05.2021 03:00 10,7 C 10,7 C 10,7 C 96 % 0 cb 1009,1 hPa 0,4 l/m 0,0 km/h (0 Bft) N 0,00 h 0,000 mm 0 W/m 10,1 C 10,7 C 0,0 km/h (0 Bft) 100,00 %
11.05.2021 04:00 10,5 C 10,5 C 10,5 C 96 % 0 cb 1009,2 hPa 0,0 l/m 0,0 km/h (0 Bft) N 0,00 h 0,000 mm 0 W/m 9,9 C 10,5 C 0,0 km/h (0 Bft) 100,00 %
11.05.2021 05:00 10,4 C 10,4 C 10,5 C 96 % 0 cb 1008,8 hPa 0,6 l/m 0,0 km/h (0 Bft) N 0,00 h 0,000 mm 0 W/m 9,8 C 10,4 C 0,0 km/h (0 Bft) 100,00 %
11.05.2021 06:00 10,1 C 10,1 C 10,2 C 96 % 0 cb 1008,3 hPa 0,0 l/m 0,5 km/h (0 Bft) S-SO 0,00 h 0,000 mm 18 W/m 9,6 C 10,1 C 2,7 km/h (1 Bft) 99,34 %
11.05.2021 07:00 10,4 C 10,3 C 10,4 C 97 % 0 cb 1008,3 hPa 0,0 l/m 0,3 km/h (0 Bft) S-SO 0,00 h 0,000 mm 82 W/m 9,9 C 10,4 C 3,5 km/h (1 Bft) 100,00 %
11.05.2021 08:00 10,9 C 10,9 C 11,0 C 97 % 0 cb 1008,4 hPa 0,0 l/m 0,0 km/h (0 Bft) N 0,00 h 0,025 mm 67 W/m 10,4 C 10,9 C 2,4 km/h (1 Bft) 99,93 %
11.05.2021 09:00 11,2 C 11,1 C 11,3 C 96 % 0 cb 1008,0 hPa 0,0 l/m 0,0 km/h (0 Bft) N 0,17 h 0,025 mm 157 W/m 10,6 C 11,2 C 2,4 km/h (1 Bft) 100,00 %
11.05.2021 10:00 12,2 C 12,0 C 12,2 C 96 % 0 cb 1007,8 hPa 0,0 l/m 0,3 km/h (0 Bft) S-SO 0,83 h 0,051 mm 260 W/m 11,6 C 12,2 C 3,2 km/h (1 Bft) 99,93 %
11.05.2021 11:00 12,5 C 12,5 C 12,6 C 93 % 0 cb 1008,0 hPa 0,2 l/m 1,3 km/h (1 Bft) S-SO 0,00 h 0,102 mm 76 W/m 11,4 C 12,5 C 5,3 km/h (1 Bft) 100,00 %
11.05.2021 12:00 12,2 C 12,2 C 12,3 C 95 % 0 cb 1008,4 hPa 3,0 l/m 0,5 km/h (0 Bft) S-SO 0,50 h 0,025 mm 162 W/m 11,4 C 12,2 C 4,0 km/h (1 Bft) 100,00 %
11.05.2021 13:00 12,7 C 12,7 C 12,8 C 94 % 0 cb 1008,6 hPa 0,4 l/m 1,3 km/h (1 Bft) S-SO 0,50 h 0,076 mm 198 W/m 11,8 C 12,7 C 5,1 km/h (1 Bft) 100,00 %
11.05.2021 14:00 12,6 C 12,6 C 12,7 C 94 % 0 cb 1008,7 hPa 0,4 l/m 1,3 km/h (1 Bft) S-SO 0,17 h 0,076 mm 151 W/m 11,7 C 12,6 C 4,8 km/h (1 Bft) 99,56 %
11.05.2021 15:00 13,3 C 13,1 C 13,3 C 94 % 0 cb 1008,4 hPa 0,0 l/m 1,6 km/h (1 Bft) S-SO 1,00 h 0,076 mm 289 W/m 12,2 C 13,3 C 6,7 km/h (2 Bft) 99,85 %
11.05.2021 16:00 13,5 C 13,4 C 13,6 C 90 % 0 cb 1008,7 hPa 0,0 l/m 1,9 km/h (1 Bft) S-SO 1,00 h 0,127 mm 240 W/m 11,9 C 13,5 C 7,5 km/h (2 Bft) 99,85 %
11.05.2021 17:00 13,1 C 13,1 C 13,2 C 89 % 0 cb 1008,8 hPa 0,0 l/m 2,9 km/h (1 Bft) S 0,17 h 0,102 mm 104 W/m 11,3 C 13,1 C 11,3 km/h (2 Bft) 99,93 %
11.05.2021 18:00 12,4 C 12,4 C 12,5 C 92 % 0 cb 1009,1 hPa 0,0 l/m 2,4 km/h (1 Bft) S 0,00 h 0,051 mm 79 W/m 11,2 C 12,4 C 8,8 km/h (2 Bft) 100,00 %
11.05.2021 19:00 12,1 C 12,1 C 12,1 C 93 % 0 cb 1009,4 hPa 0,0 l/m 1,1 km/h (0 Bft) S 0,00 h 0,025 mm 56 W/m 11,0 C 12,1 C 5,1 km/h (1 Bft) 100,00 %
11.05.2021 20:00 11,8 C 11,8 C 11,8 C 94 % 0 cb 1010,1 hPa 0,0 l/m 0,8 km/h (0 Bft) S 0,00 h 0,025 mm 17 W/m 10,8 C 11,8 C 4,5 km/h (1 Bft) 99,93 %
11.05.2021 21:00 11,2 C 11,2 C 11,3 C 94 % 0 cb 1010,6 hPa 0,0 l/m 1,3 km/h (1 Bft) S 0,00 h 0,000 mm 0 W/m 10,3 C 11,2 C 5,6 km/h (1 Bft) 99,85 %
11.05.2021 22:00 10,8 C 10,8 C 10,8 C 95 % 0 cb 1011,2 hPa 0,0 l/m 1,1 km/h (0 Bft) S 0,00 h 0,000 mm 0 W/m 9,9 C 10,8 C 4,8 km/h (1 Bft) 100,00 %
11.05.2021 23:00 10,4 C 10,4 C 10,5 C 94 % 0 cb 1011,6 hPa 0,0 l/m 3,7 km/h (1 Bft) S-SW 0,00 h 0,000 mm 0 W/m 9,5 C 10,4 C 12,6 km/h (3 Bft) 99,93 %
12.05.2021 00:00 9,9 C 9,9 C 10,1 C 94 % 0 cb 1012,0 hPa 0,0 l/m 2,4 km/h (1 Bft) SW 0,00 h 0,000 mm 0 W/m 9,0 C 9,9 C 8,0 km/h (2 Bft) 99,78 %
12.05.2021 01:00 9,4 C 9,4 C 9,5 C 94 % 0 cb 1012,4 hPa 0,0 l/m 2,4 km/h (1 Bft) SW 0,00 h 0,000 mm 0 W/m 8,5 C 9,4 C 8,6 km/h (2 Bft) 100,00 %
12.05.2021 02:00 9,3 C 9,3 C 9,3 C 95 % 0 cb 1012,5 hPa 0,0 l/m 3,7 km/h (1 Bft) SW 0,00 h 0,000 mm 0 W/m 8,5 C 9,2 C 12,9 km/h (3 Bft) 100,00 %
12.05.2021 03:00 9,4 C 9,4 C 9,5 C 94 % 0 cb 1012,6 hPa 0,0 l/m 4,0 km/h (1 Bft) SW 0,00 h 0,000 mm 0 W/m 8,5 C 9,3 C 11,8 km/h (2 Bft) 100,00 %
12.05.2021 04:00 9,4 C 9,4 C 9,4 C 95 % 0 cb 1012,7 hPa 0,0 l/m 2,4 km/h (1 Bft) SW 0,00 h 0,000 mm 0 W/m 8,6 C 9,4 C 8,6 km/h (2 Bft) 100,00 %
12.05.2021 05:00 9,2 C 9,2 C 9,3 C 95 % 0 cb 1012,6 hPa 0,0 l/m 2,7 km/h (1 Bft) SW 0,00 h 0,000 mm 0 W/m 8,4 C 9,1 C 9,1 km/h (2 Bft) 99,85 %
12.05.2021 06:00 8,9 C 8,9 C 8,9 C 95 % 0 cb 1012,8 hPa 0,0 l/m 2,7 km/h (1 Bft) SW 0,00 h 0,000 mm 6 W/m 8,1 C 8,9 C 9,4 km/h (2 Bft) 100,00 %
12.05.2021 07:00 9,0 C 9,0 C 9,0 C 95 % 0 cb 1013,0 hPa 0,0 l/m 2,7 km/h (1 Bft) SW 0,00 h 0,000 mm 26 W/m 8,3 C 9,0 C 11,3 km/h (2 Bft) 100,00 %
12.05.2021 08:00 9,4 C 9,3 C 9,4 C 95 % 0 cb 1013,1 hPa 0,0 l/m 1,9 km/h (1 Bft) SW 0,00 h 0,025 mm 95 W/m 8,6 C 9,4 C 7,8 km/h (2 Bft) 100,00 %
12.05.2021 09:00 10,3 C 10,0 C 10,3 C 92 % 0 cb 1013,2 hPa 0,0 l/m 3,2 km/h (1 Bft) SW 0,83 h 0,051 mm 316 W/m 9,1 C 10,3 C 9,4 km/h (2 Bft) 99,78 %
12.05.2021 10:00 13,2 C 12,8 C 13,2 C 83 % 0 cb 1012,9 hPa 0,0 l/m 4,5 km/h (1 Bft) SW 1,00 h 0,127 mm 816 W/m 10,3 C 13,2 C 13,2 km/h (3 Bft) 100,00 %
12.05.2021 11:00 14,3 C 14,2 C 14,4 C 77 % 0 cb 1012,8 hPa 0,0 l/m 6,4 km/h (2 Bft) S 1,00 h 0,330 mm 757 W/m 10,3 C 14,3 C 16,9 km/h (3 Bft) 99,93 %
12.05.2021 12:00 14,3 C 14,2 C 14,4 C 76 % 0 cb 1012,6 hPa 0,0 l/m 6,7 km/h (2 Bft) W 1,00 h 0,406 mm 884 W/m 10,0 C 14,3 C 19,0 km/h (3 Bft) 99,93 %
12.05.2021 13:00 15,1 C 14,8 C 15,1 C 70 % 0 cb 1012,1 hPa 0,0 l/m 5,9 km/h (2 Bft) W 1,00 h 0,406 mm 913 W/m 9,7 C 15,1 C 17,7 km/h (3 Bft) 100,00 %
12.05.2021 14:00 16,1 C 16,0 C 16,3 C 64 % 0 cb 1011,4 hPa 0,0 l/m 5,3 km/h (1 Bft) W 1,00 h 0,483 mm 835 W/m 9,3 C 16,1 C 16,1 km/h (3 Bft) 100,00 %
12.05.2021 15:00 16,7 C 16,4 C 16,8 C 60 % 0 cb 1011,2 hPa 0,0 l/m 6,1 km/h (2 Bft) W 1,00 h 0,356 mm 762 W/m 8,9 C 16,7 C 16,4 km/h (3 Bft) 99,93 %
12.05.2021 16:00 16,2 C 16,1 C 16,5 C 61 % 0 cb 1010,9 hPa 0,0 l/m 4,5 km/h (1 Bft) W 1,00 h 0,330 mm 640 W/m 8,5 C 16,2 C 13,4 km/h (3 Bft) 100,00 %
12.05.2021 17:00 16,8 C 16,6 C 16,9 C 54 % 0 cb 1010,6 hPa 0,0 l/m 5,1 km/h (1 Bft) S-SW 0,83 h 0,279 mm 459 W/m 7,4 C 16,8 C 13,7 km/h (3 Bft) 99,85 %
12.05.2021 18:00 16,3 C 16,2 C 16,5 C 56 % 0 cb 1010,4 hPa 0,0 l/m 4,3 km/h (1 Bft) S-SW 0,00 h 0,203 mm 116 W/m 7,4 C 16,3 C 12,3 km/h (3 Bft) 99,78 %
12.05.2021 19:00 15,9 C 15,9 C 16,1 C 56 % 0 cb 1010,3 hPa 0,0 l/m 2,9 km/h (1 Bft) SW 0,00 h 0,076 mm 50 W/m 7,2 C 15,9 C 9,1 km/h (2 Bft) 100,00 %
12.05.2021 20:00 14,0 C 14,0 C 14,4 C 63 % 0 cb 1010,4 hPa 0,0 l/m 0,3 km/h (0 Bft) N 0,00 h 0,051 mm 17 W/m 7,0 C 14,0 C 2,1 km/h (1 Bft) 99,93 %
12.05.2021 21:00 11,3 C 11,3 C 11,8 C 73 % 0 cb 1010,6 hPa 0,0 l/m 0,0 km/h (0 Bft) N 0,00 h 0,025 mm 0 W/m 6,6 C 11,3 C 0,5 km/h (0 Bft) 100,00 %
12.05.2021 22:00 9,3 C 9,3 C 9,5 C 80 % 0 cb 1010,7 hPa 0,0 l/m 0,0 km/h (0 Bft) N 0,00 h 0,000 mm 0 W/m 6,1 C 9,3 C 0,0 km/h (0 Bft) 99,78 %
12.05.2021 23:00 8,5 C 8,4 C 8,6 C 83 % 0 cb 1010,3 hPa 0,0 l/m 0,0 km/h (0 Bft) N 0,00 h 0,025 mm 0 W/m 5,7 C 8,5 C 0,0 km/h (0 Bft) 100,00 %
13.05.2021 00:00 7,3 C 7,3 C 7,5 C 85 % 0 cb 1010,0 hPa 0,0 l/m 0,0 km/h (0 Bft) N 0,00 h 0,000 mm 0 W/m 4,9 C 7,3 C 0,0 km/h (0 Bft) 99,78 %
13.05.2021 01:00 6,2 C 6,1 C 6,4 C 89 % 0 cb 1009,9 hPa 0,0 l/m 0,0 km/h (0 Bft) N 0,00 h 0,000 mm 0 W/m 4,5 C 6,2 C 0,0 km/h (0 Bft) 99,85 %
13.05.2021 02:00 6,0 C 6,0 C 6,1 C 90 % 0 cb 1009,7 hPa 0,0 l/m 0,0 km/h (0 Bft) N 0,00 h 0,000 mm 0 W/m 4,5 C 6,0 C 1,6 km/h (1 Bft) 99,93 %
13.05.2021 03:00 5,2 C 5,2 C 5,3 C 91 % 0 cb 1009,4 hPa 0,0 l/m 0,0 km/h (0 Bft) N 0,00 h 0,000 mm 0 W/m 3,8 C 5,2 C 0,8 km/h (0 Bft) 99,93 %
13.05.2021 04:00 4,9 C 4,8 C 4,9 C 93 % 0 cb 1009,1 hPa 0,0 l/m 0,0 km/h (0 Bft) N 0,00 h 0,000 mm 0 W/m 3,8 C 4,9 C 0,5 km/h (0 Bft) 100,00 %
13.05.2021 05:00 4,7 C 4,6 C 4,8 C 93 % 0 cb 1008,9 hPa 0,0 l/m 0,0 km/h (0 Bft) N 0,00 h 0,000 mm 0 W/m 3,7 C 4,7 C 0,8 km/h (0 Bft) 99,85 %
13.05.2021 06:00 5,0 C 4,9 C 5,0 C 94 % 0 cb 1008,7 hPa 0,0 l/m 0,0 km/h (0 Bft) N 0,00 h 0,000 mm 20 W/m 4,1 C 5,0 C 1,9 km/h (1 Bft) 100,00 %
13.05.2021 07:00 5,9 C 5,7 C 5,9 C 94 % 0 cb 1008,5 hPa 0,0 l/m 0,0 km/h (0 Bft) N 0,00 h 0,000 mm 79 W/m 5,0 C 5,9 C 0,5 km/h (0 Bft) 99,27 %
13.05.2021 08:00 8,1 C 7,4 C 8,1 C 92 % 0 cb 1008,2 hPa 0,0 l/m 0,0 km/h (0 Bft) SW 0,83 h 0,025 mm 313 W/m 6,9 C 8,1 C 0,0 km/h (0 Bft) 100,00 %
13.05.2021 09:00 12,4 C 12,0 C 12,4 C 78 % 0 cb 1008,1 hPa 0,0 l/m 0,8 km/h (0 Bft) S-SW 1,00 h 0,127 mm 328 W/m 8,7 C 12,4 C 3,7 km/h (1 Bft) 99,93 %
13.05.2021 10:00 14,8 C 14,3 C 14,8 C 71 % 0 cb 1008,0 hPa 0,0 l/m 2,7 km/h (1 Bft) S-SW 1,00 h 0,152 mm 700 W/m 9,5 C 14,8 C 7,5 km/h (2 Bft) 99,85 %
13.05.2021 11:00 15,6 C 15,5 C 15,8 C 66 % 0 cb 1007,8 hPa 0,0 l/m 4,3 km/h (1 Bft) S-SW 1,00 h 0,279 mm 482 W/m 9,3 C 15,6 C 13,4 km/h (3 Bft) 100,00 %
13.05.2021 12:00 15,6 C 15,4 C 15,6 C 68 % 0 cb 1007,6 hPa 0,0 l/m 6,4 km/h (2 Bft) S-SW 1,00 h 0,203 mm 580 W/m 9,7 C 15,6 C 18,8 km/h (3 Bft) 100,00 %
13.05.2021 13:00 15,3 C 15,3 C 15,5 C 68 % 0 cb 1007,3 hPa 0,0 l/m 5,6 km/h (1 Bft) W 1,00 h 0,279 mm 467 W/m 9,5 C 15,3 C 18,2 km/h (3 Bft) 99,85 %
13.05.2021 14:00 16,4 C 16,1 C 16,6 C 67 % 0 cb 1007,3 hPa 0,0 l/m 8,6 km/h (2 Bft) S-SW 1,00 h 0,279 mm 820 W/m 10,3 C 16,4 C 23,1 km/h (4 Bft) 100,00 %
13.05.2021 15:00 14,5 C 14,5 C 14,8 C 71 % 0 cb 1007,7 hPa 0,0 l/m 9,4 km/h (2 Bft) SW 1,00 h 0,356 mm 589 W/m 9,4 C 14,5 C 26,6 km/h (4 Bft) 99,78 %
13.05.2021 16:00 14,6 C 14,4 C 14,6 C 70 % 0 cb 1007,5 hPa 0,0 l/m 9,7 km/h (2 Bft) W 1,00 h 0,279 mm 788 W/m 9,2 C 14,6 C 25,2 km/h (4 Bft) 100,00 %
13.05.2021 17:00 14,0 C 14,0 C 14,2 C 68 % 0 cb 1007,4 hPa 0,0 l/m 5,9 km/h (2 Bft) W 1,00 h 0,356 mm 371 W/m 8,2 C 14,0 C 18,5 km/h (3 Bft) 100,00 %
13.05.2021 18:00 13,7 C 13,6 C 13,9 C 67 % 0 cb 1007,5 hPa 0,0 l/m 4,0 km/h (1 Bft) W-SW 0,50 h 0,152 mm 125 W/m 7,6 C 13,7 C 15,3 km/h (3 Bft) 100,00 %
13.05.2021 19:00 12,8 C 12,8 C 12,9 C 69 % 0 cb 1007,6 hPa 0,0 l/m 1,9 km/h (1 Bft) SW 0,00 h 0,076 mm 55 W/m 7,2 C 12,8 C 8,0 km/h (2 Bft) 100,00 %
13.05.2021 20:00 12,3 C 12,3 C 12,4 C 70 % 0 cb 1007,9 hPa 0,0 l/m 1,3 km/h (1 Bft) S-SW 0,00 h 0,025 mm 26 W/m 6,9 C 12,3 C 6,2 km/h (2 Bft) 100,00 %
13.05.2021 21:00 10,6 C 10,6 C 11,0 C 70 % 0 cb 1008,1 hPa 0,0 l/m 0,3 km/h (0 Bft) N 0,00 h 0,025 mm 7 W/m 5,4 C 10,6 C 1,1 km/h (0 Bft) 100,00 %
13.05.2021 22:00 8,2 C 8,2 C 8,5 C 78 % 0 cb 1008,4 hPa 0,0 l/m 0,0 km/h (0 Bft) N 0,00 h 0,000 mm 0 W/m 4,7 C 8,2 C 1,6 km/h (1 Bft) 99,85 %
13.05.2021 23:00 7,2 C 7,2 C 7,3 C 84 % 0 cb 1008,4 hPa 0,0 l/m 0,0 km/h (0 Bft) N 0,00 h 0,025 mm 0 W/m 4,6 C 7,2 C 0,5 km/h (0 Bft) 100,00 %
14.05.2021 00:00 6,2 C 6,2 C 6,4 C 86 % 0 cb 1008,6 hPa 0,0 l/m 0,0 km/h (0 Bft) N 0,00 h 0,000 mm 0 W/m 4,0 C 6,2 C 1,1 km/h (0 Bft) 100,00 %
14.05.2021 01:00 5,5 C 5,4 C 5,5 C 90 % 0 cb 1008,7 hPa 0,0 l/m 0,0 km/h (0 Bft) N 0,00 h 0,000 mm 0 W/m 3,9 C 5,5 C 0,8 km/h (0 Bft) 100,00 %
14.05.2021 02:00 5,4 C 5,4 C 5,5 C 91 % 0 cb 1008,6 hPa 0,0 l/m 0,0 km/h (0 Bft) N 0,00 h 0,000 mm 0 W/m 4,0 C 5,4 C 0,3 km/h (0 Bft) 99,78 %
14.05.2021 03:00 4,9 C 4,8 C 5,0 C 92 % 0 cb 1008,6 hPa 0,0 l/m 0,0 km/h (0 Bft) N 0,00 h 0,000 mm 0 W/m 3,6 C 4,9 C 0,3 km/h (0 Bft) 100,00 %
14.05.2021 04:00 4,6 C 4,5 C 4,7 C 93 % 0 cb 1008,4 hPa 0,0 l/m 0,0 km/h (0 Bft) N 0,00 h 0,000 mm 0 W/m 3,5 C 4,6 C 0,0 km/h (0 Bft) 99,93 %
14.05.2021 05:00 4,7 C 4,6 C 4,7 C 94 % 0 cb 1008,4 hPa 0,0 l/m 0,0 km/h (0 Bft) N 0,00 h 0,000 mm 0 W/m 3,8 C 4,7 C 0,0 km/h (0 Bft) 99,85 %
14.05.2021 06:00 5,0 C 4,9 C 5,0 C 95 % 0 cb 1008,5 hPa 0,0 l/m 0,0 km/h (0 Bft) N 0,00 h 0,000 mm 12 W/m 4,2 C 5,0 C 0,0 km/h (0 Bft) 100,00 %
14.05.2021 07:00 6,1 C 5,8 C 6,1 C 96 % 0 cb 1008,7 hPa 0,0 l/m 0,0 km/h (0 Bft) N 0,00 h 0,000 mm 96 W/m 5,5 C 6,1 C 0,0 km/h (0 Bft) 99,71 %
14.05.2021 08:00 8,4 C 7,9 C 8,4 C 94 % 0 cb 1008,9 hPa 0,0 l/m 0,8 km/h (0 Bft) S-SW 1,00 h 0,025 mm 367 W/m 7,5 C 8,4 C 3,2 km/h (1 Bft) 99,85 %
14.05.2021 09:00 12,4 C 11,8 C 12,4 C 81 % 0 cb 1008,9 hPa 0,0 l/m 2,7 km/h (1 Bft) S-SW 1,00 h 0,127 mm 571 W/m 9,3 C 12,4 C 9,1 km/h (2 Bft) 100,00 %
14.05.2021 10:00 14,6 C 14,3 C 14,7 C 69 % 0 cb 1008,9 hPa 0,0 l/m 4,3 km/h (1 Bft) S-SW 1,00 h 0,279 mm 694 W/m 8,8 C 14,6 C 14,2 km/h (3 Bft) 100,00 %
14.05.2021 11:00 14,2 C 14,1 C 14,3 C 67 % 0 cb 1008,9 hPa 0,0 l/m 4,3 km/h (1 Bft) W-SW 1,00 h 0,305 mm 791 W/m 8,1 C 14,2 C 14,0 km/h (3 Bft) 100,00 %
14.05.2021 12:00 14,4 C 14,2 C 14,7 C 66 % 0 cb 1008,7 hPa 0,0 l/m 4,5 km/h (1 Bft) W-SW 1,00 h 0,229 mm 412 W/m 8,0 C 14,4 C 13,1 km/h (3 Bft) 100,00 %
14.05.2021 13:00 12,7 C 12,3 C 13,0 C 73 % 0 cb 1008,8 hPa 0,2 l/m 3,5 km/h (1 Bft) NW 1,00 h 0,178 mm 579 W/m 7,9 C 12,7 C 10,7 km/h (2 Bft) 100,00 %
14.05.2021 14:00 13,4 C 13,2 C 14,1 C 70 % 0 cb 1008,8 hPa 0,6 l/m 6,2 km/h (2 Bft) W 0,50 h 0,279 mm 198 W/m 7,8 C 13,4 C 17,2 km/h (3 Bft) 100,00 %
14.05.2021 15:00 13,7 C 13,0 C 13,8 C 77 % 0 cb 1009,1 hPa 0,0 l/m 3,7 km/h (1 Bft) W 0,83 h 0,152 mm 661 W/m 9,7 C 13,7 C 12,1 km/h (2 Bft) 100,00 %
14.05.2021 16:00 11,8 C 11,7 C 12,3 C 81 % 0 cb 1009,4 hPa 0,4 l/m 5,4 km/h (1 Bft) W 0,67 h 0,254 mm 256 W/m 8,6 C 11,8 C 15,6 km/h (3 Bft) 100,00 %
14.05.2021 17:00 13,6 C 13,2 C 13,6 C 78 % 0 cb 1009,1 hPa 0,0 l/m 4,5 km/h (1 Bft) W 0,83 h 0,127 mm 523 W/m 9,8 C 13,6 C 14,8 km/h (3 Bft) 100,00 %
14.05.2021 18:00 14,3 C 14,3 C 14,4 C 70 % 0 cb 1008,8 hPa 0,0 l/m 5,3 km/h (1 Bft) W 0,00 h 0,203 mm 57 W/m 8,8 C 14,3 C 16,6 km/h (3 Bft) 99,93 %
14.05.2021 19:00 13,7 C 13,7 C 13,8 C 70 % 0 cb 1008,9 hPa 0,0 l/m 3,2 km/h (1 Bft) S-SW 0,00 h 0,051 mm 43 W/m 8,3 C 13,7 C 10,2 km/h (2 Bft) 99,85 %
14.05.2021 20:00 13,0 C 13,0 C 13,2 C 73 % 0 cb 1009,0 hPa 0,0 l/m 2,4 km/h (1 Bft) S-SW 0,00 h 0,025 mm 23 W/m 8,2 C 13,0 C 7,8 km/h (2 Bft) 99,85 %
14.05.2021 21:00 10,9 C 10,9 C 11,3 C 82 % 0 cb 1009,6 hPa 0,4 l/m 4,8 km/h (1 Bft) S-SW 0,00 h 0,025 mm 0 W/m 7,8 C 10,9 C 17,7 km/h (3 Bft) 100,00 %
14.05.2021 22:00 9,3 C 9,3 C 9,4 C 89 % 0 cb 1010,3 hPa 0,2 l/m 0,3 km/h (0 Bft) N 0,00 h 0,000 mm 0 W/m 7,6 C 9,3 C 3,5 km/h (1 Bft) 100,00 %
14.05.2021 23:00 8,8 C 8,8 C 8,9 C 91 % 0 cb 1010,4 hPa 0,0 l/m 0,8 km/h (0 Bft) S 0,00 h 0,000 mm 0 W/m 7,4 C 8,8 C 4,8 km/h (1 Bft) 99,78 %
15.05.2021 00:00 7,7 C 7,7 C 7,8 C 92 % 0 cb 1010,2 hPa 0,0 l/m 0,3 km/h (0 Bft) S 0,00 h 0,000 mm 0 W/m 6,4 C 7,7 C 2,1 km/h (1 Bft) 100,00 %
15.05.2021 01:00 7,8 C 7,7 C 7,8 C 94 % 0 cb 1009,9 hPa 0,2 l/m 1,3 km/h (1 Bft) S 0,00 h 0,000 mm 0 W/m 7,0 C 7,8 C 6,2 km/h (2 Bft) 99,63 %
15.05.2021 02:00 8,2 C 8,1 C 8,2 C 95 % 0 cb 1009,3 hPa 0,0 l/m 3,2 km/h (1 Bft) S 0,00 h 0,000 mm 0 W/m 7,4 C 8,1 C 10,5 km/h (2 Bft) 99,78 %
15.05.2021 03:00 8,2 C 8,2 C 8,2 C 95 % 0 cb 1009,0 hPa 1,0 l/m 3,5 km/h (1 Bft) SW 0,00 h 0,000 mm 0 W/m 7,4 C 8,0 C 13,9 km/h (3 Bft) 99,71 %
15.05.2021 04:00 8,1 C 8,1 C 8,1 C 95 % 0 cb 1008,7 hPa 0,0 l/m 3,7 km/h (1 Bft) SW 0,00 h 0,000 mm 0 W/m 7,3 C 7,8 C 14,2 km/h (3 Bft) 100,00 %
15.05.2021 05:00 7,8 C 7,8 C 7,9 C 95 % 0 cb 1008,5 hPa 0,0 l/m 3,2 km/h (1 Bft) S-SW 0,00 h 0,000 mm 0 W/m 7,1 C 7,7 C 12,3 km/h (3 Bft) 99,49 %
15.05.2021 06:00 7,7 C 7,7 C 7,8 C 95 % 0 cb 1008,6 hPa 0,0 l/m 3,7 km/h (1 Bft) S-SW 0,00 h 0,000 mm 17 W/m 7,0 C 7,4 C 11,8 km/h (2 Bft) 99,85 %
15.05.2021 07:00 7,8 C 7,7 C 7,8 C 96 % 0 cb 1008,5 hPa 0,0 l/m 3,2 km/h (1 Bft) S 0,00 h 0,000 mm 44 W/m 7,1 C 7,7 C 10,2 km/h (2 Bft) 100,00 %
15.05.2021 08:00 8,0 C 7,9 C 8,0 C 96 % 0 cb 1008,4 hPa 0,0 l/m 3,7 km/h (1 Bft) S 0,00 h 0,025 mm 60 W/m 7,4 C 7,8 C 9,1 km/h (2 Bft) 100,00 %
15.05.2021 09:00 8,5 C 8,4 C 8,6 C 96 % 0 cb 1008,0 hPa 0,0 l/m 3,7 km/h (1 Bft) S 0,00 h 0,025 mm 97 W/m 7,9 C 8,4 C 13,1 km/h (3 Bft) 100,00 %
15.05.2021 10:00 8,7 C 8,6 C 8,7 C 95 % 0 cb 1007,9 hPa 0,2 l/m 4,8 km/h (1 Bft) S 0,33 h 0,025 mm 130 W/m 7,9 C 8,3 C 13,2 km/h (3 Bft) 100,00 %
15.05.2021 11:00 9,3 C 9,1 C 9,3 C 95 % 0 cb 1007,5 hPa 0,0 l/m 5,6 km/h (1 Bft) S 0,83 h 0,051 mm 243 W/m 8,5 C 8,7 C 13,7 km/h (3 Bft) 100,00 %
15.05.2021 12:00 10,6 C 10,4 C 10,6 C 91 % 0 cb 1006,8 hPa 0,0 l/m 8,3 km/h (2 Bft) S 1,00 h 0,076 mm 344 W/m 9,1 C 10,6 C 19,8 km/h (4 Bft) 100,00 %
15.05.2021 13:00 10,4 C 10,4 C 10,6 C 84 % 0 cb 1006,2 hPa 0,0 l/m 10,5 km/h (2 Bft) S 1,00 h 0,152 mm 243 W/m 7,8 C 10,4 C 23,9 km/h (4 Bft) 99,85 %
15.05.2021 14:00 10,7 C 10,6 C 10,7 C 82 % 0 cb 1005,4 hPa 0,0 l/m 8,6 km/h (2 Bft) S 0,50 h 0,127 mm 175 W/m 7,8 C 10,7 C 22,5 km/h (4 Bft) 100,00 %
15.05.2021 15:00 10,5 C 10,5 C 10,6 C 86 % 0 cb 1004,9 hPa 0,2 l/m 5,9 km/h (2 Bft) S 0,17 h 0,076 mm 131 W/m 8,2 C 10,5 C 17,4 km/h (3 Bft) 100,00 %
15.05.2021 16:00 10,9 C 10,8 C 10,9 C 86 % 0 cb 1004,0 hPa 0,0 l/m 6,7 km/h (2 Bft) S 0,17 h 0,051 mm 122 W/m 8,5 C 10,9 C 17,7 km/h (3 Bft) 99,93 %
15.05.2021 17:00 11,3 C 11,2 C 11,3 C 89 % 0 cb 1003,6 hPa 0,8 l/m 8,3 km/h (2 Bft) S 0,50 h 0,051 mm 233 W/m 9,4 C 11,3 C 19,3 km/h (3 Bft) 99,85 %
15.05.2021 18:00 10,9 C 10,8 C 11,0 C 90 % 0 cb 1003,3 hPa 0,0 l/m 7,2 km/h (2 Bft) S 0,17 h 0,076 mm 96 W/m 9,3 C 10,9 C 19,3 km/h (3 Bft) 99,85 %
15.05.2021 19:00 9,8 C 9,8 C 10,2 C 92 % 0 cb 1003,5 hPa 3,8 l/m 6,2 km/h (2 Bft) S 0,00 h 0,051 mm 32 W/m 8,5 C 9,3 C 20,7 km/h (4 Bft) 99,93 %
15.05.2021 20:00 8,1 C 8,1 C 8,2 C 94 % 0 cb 1004,0 hPa 0,6 l/m 2,1 km/h (1 Bft) S 0,00 h 0,025 mm 24 W/m 7,1 C 8,0 C 8,0 km/h (2 Bft) 100,00 %
15.05.2021 21:00 7,8 C 7,8 C 7,9 C 95 % 0 cb 1004,8 hPa 0,0 l/m 2,1 km/h (1 Bft) W 0,00 h 0,000 mm 0 W/m 7,1 C 7,8 C 9,1 km/h (2 Bft) 100,00 %
15.05.2021 22:00 7,6 C 7,6 C 7,6 C 95 % 0 cb 1005,2 hPa 0,0 l/m 1,3 km/h (1 Bft) SW 0,00 h 0,000 mm 0 W/m 6,9 C 7,6 C 6,2 km/h (2 Bft) 100,00 %
15.05.2021 23:00 7,5 C 7,5 C 7,5 C 96 % 0 cb 1005,6 hPa 0,0 l/m 1,1 km/h (0 Bft) SW 0,00 h 0,000 mm 0 W/m 6,9 C 7,5 C 3,7 km/h (1 Bft) 100,00 %
16.05.2021 00:00 7,7 C 7,7 C 7,7 C 96 % 0 cb 1005,6 hPa 0,0 l/m 2,4 km/h (1 Bft) SW 0,00 h 0,000 mm 0 W/m 7,1 C 7,6 C 7,8 km/h (2 Bft) 100,00 %
16.05.2021 01:00 7,6 C 7,6 C 7,6 C 96 % 0 cb 1005,8 hPa 0,0 l/m 1,1 km/h (0 Bft) S 0,00 h 0,000 mm 0 W/m 7,0 C 7,6 C 4,3 km/h (1 Bft) 100,00 %
16.05.2021 02:00 7,5 C 7,5 C 7,6 C 96 % 0 cb 1005,4 hPa 0,0 l/m 1,6 km/h (1 Bft) S 0,00 h 0,000 mm 0 W/m 7,0 C 7,5 C 4,5 km/h (1 Bft) 99,85 %
16.05.2021 03:00 7,5 C 7,5 C 7,6 C 97 % 0 cb 1005,2 hPa 0,0 l/m 0,8 km/h (0 Bft) S 0,00 h 0,000 mm 0 W/m 7,0 C 7,5 C 4,3 km/h (1 Bft) 99,93 %
16.05.2021 04:00 7,7 C 7,7 C 7,7 C 97 % 0 cb 1005,1 hPa 0,0 l/m 2,1 km/h (1 Bft) S 0,00 h 0,000 mm 0 W/m 7,3 C 7,7 C 7,8 km/h (2 Bft) 100,00 %
16.05.2021 05:00 8,0 C 7,9 C 8,0 C 97 % 0 cb 1004,9 hPa 0,2 l/m 3,7 km/h (1 Bft) S-SW 0,00 h 0,000 mm 0 W/m 7,6 C 7,8 C 13,2 km/h (3 Bft) 100,00 %
16.05.2021 06:00 8,2 C 8,2 C 8,2 C 97 % 0 cb 1004,9 hPa 1,0 l/m 4,0 km/h (1 Bft) S-SW 0,00 h 0,000 mm 9 W/m 7,7 C 8,0 C 13,2 km/h (3 Bft) 100,00 %
16.05.2021 07:00 8,3 C 8,2 C 8,3 C 97 % 0 cb 1005,0 hPa 0,4 l/m 5,6 km/h (1 Bft) S-SW 0,00 h 0,000 mm 35 W/m 7,8 C 7,6 C 19,8 km/h (4 Bft) 100,00 %
16.05.2021 08:00 8,6 C 8,6 C 8,6 C 97 % 0 cb 1005,2 hPa 0,0 l/m 6,7 km/h (2 Bft) S-SW 0,00 h 0,025 mm 95 W/m 8,2 C 7,7 C 21,2 km/h (4 Bft) 99,85 %
16.05.2021 09:00 9,4 C 9,1 C 9,4 C 97 % 0 cb 1005,3 hPa 0,0 l/m 5,6 km/h (1 Bft) SW 0,83 h 0,025 mm 349 W/m 8,9 C 8,9 C 19,3 km/h (3 Bft) 100,00 %
16.05.2021 10:00 9,9 C 9,8 C 10,1 C 94 % 0 cb 1005,4 hPa 0,6 l/m 5,1 km/h (1 Bft) W 0,67 h 0,127 mm 157 W/m 8,9 C 9,7 C 18,5 km/h (3 Bft) 100,00 %
16.05.2021 11:00 10,7 C 10,4 C 10,8 C 93 % 0 cb 1005,2 hPa 0,2 l/m 4,5 km/h (1 Bft) W-NW 1,00 h 0,076 mm 533 W/m 9,7 C 10,7 C 16,6 km/h (3 Bft) 100,00 %
16.05.2021 12:00 12,3 C 11,9 C 12,3 C 86 % 0 cb 1004,8 hPa 0,0 l/m 6,7 km/h (2 Bft) S-SW 1,00 h 0,178 mm 772 W/m 10,0 C 12,3 C 19,8 km/h (4 Bft) 100,00 %
16.05.2021 13:00 13,0 C 12,8 C 13,1 C 80 % 0 cb 1004,1 hPa 0,0 l/m 6,4 km/h (2 Bft) S 1,00 h 0,305 mm 551 W/m 9,5 C 13,0 C 20,1 km/h (4 Bft) 99,71 %
16.05.2021 14:00 14,1 C 13,9 C 14,2 C 75 % 0 cb 1003,5 hPa 0,0 l/m 6,4 km/h (2 Bft) S 1,00 h 0,229 mm 554 W/m 9,7 C 14,1 C 19,8 km/h (4 Bft) 100,00 %
16.05.2021 15:00 14,5 C 14,2 C 14,8 C 75 % 0 cb 1002,8 hPa 0,0 l/m 7,2 km/h (2 Bft) S 1,00 h 0,279 mm 633 W/m 10,2 C 14,5 C 22,0 km/h (4 Bft) 100,00 %
16.05.2021 16:00 16,0 C 15,7 C 16,1 C 65 % 0 cb 1002,0 hPa 0,0 l/m 7,2 km/h (2 Bft) S 1,00 h 0,254 mm 790 W/m 9,5 C 16,0 C 20,4 km/h (4 Bft) 100,00 %
16.05.2021 17:00 14,1 C 14,1 C 14,9 C 73 % 0 cb 1001,9 hPa 0,2 l/m 10,8 km/h (2 Bft) S 0,33 h 0,305 mm 87 W/m 9,2 C 14,1 C 25,2 km/h (4 Bft) 100,00 %
16.05.2021 18:00 11,6 C 11,5 C 11,7 C 87 % 0 cb 1002,2 hPa 0,0 l/m 6,4 km/h (2 Bft) W 0,67 h 0,076 mm 164 W/m 9,6 C 11,6 C 16,9 km/h (3 Bft) 99,93 %
16.05.2021 19:00 12,2 C 12,2 C 12,3 C 84 % 0 cb 1002,0 hPa 0,0 l/m 4,0 km/h (1 Bft) W-NW 0,17 h 0,076 mm 91 W/m 9,5 C 12,2 C 12,1 km/h (2 Bft) 100,00 %
16.05.2021 20:00 11,6 C 11,6 C 11,7 C 86 % 0 cb 1002,2 hPa 0,0 l/m 1,3 km/h (1 Bft) W-NW 0,00 h 0,025 mm 31 W/m 9,2 C 11,6 C 7,0 km/h (2 Bft) 100,00 %
16.05.2021 21:00 10,2 C 10,2 C 10,4 C 89 % 0 cb 1002,5 hPa 0,0 l/m 1,6 km/h (1 Bft) W-NW 0,00 h 0,025 mm 0 W/m 8,5 C 10,2 C 5,3 km/h (1 Bft) 99,71 %
16.05.2021 22:00 9,1 C 9,1 C 9,4 C 91 % 0 cb 1003,7 hPa 4,6 l/m 5,6 km/h (1 Bft) W-NW 0,00 h 0,000 mm 0 W/m 7,6 C 8,2 C 18,2 km/h (3 Bft) 100,00 %
16.05.2021 23:00 7,4 C 7,4 C 7,5 C 93 % 0 cb 1003,9 hPa 1,2 l/m 1,1 km/h (0 Bft) N 0,00 h 0,000 mm 0 W/m 6,4 C 7,3 C 4,6 km/h (1 Bft) 100,00 %
Min-Datum _ 13.05.21 13.05.21 13.05.21 12.05.21 10.05.21 16.05.21 - 10.05.21 - - - - 14.05.21 14.05.21 10.05.21 13.05.21
_ Min-Zeit 05:40 05:40 05:40 17:00 00:00 17:00 - 00:20 - - - - 04:10 04:10 02:50 07:20
Minimum _ 4,4 C 4,4 C 4,5 C 52 % 0 cb 1001,4 hPa - 0,0 km/h (0 Bft) - - - - 3,2 C 4,4 C 0,0 km/h (0 Bft) 95,61 %
Max-Datum _ 12.05.21 12.05.21 12.05.21 11.05.21 10.05.21 12.05.21 16.05.21 15.05.21 - 10.05.21 12.05.21 13.05.21 10.05.21 12.05.21 15.05.21 10.05.21
_ Max-Zeit 15:50 15:50 15:50 06:40 00:00 09:10 22:40 19:40 - 08:00 14:00 14:30 08:50 15:40 19:40 00:00
Maximum _ 17,3 C 17,1 C 17,3 C 97 % 0 cb 1013,4 hPa 4,6 l/m 14,5 km/h
S (3 Bft)
- 0,17 h 0,483 mm 1136 W/m 13,0 C 17,2 C 43,5 km/h
S (6 Bft)
100,00 %
Durchschnitt _ 11,1 C 11,0 C 11,2 C 86 % 0 cb 1008,0 hPa #27,6 l/m 3,2 km/h (1 Bft) S #53:00 h #13,066 mm 273 W/m 8,6 C 11,1 C 10,1 km/h (2 Bft) 99,93 %
Wetterstation Gdesweiler